Time;durP1;ratioP1;P1;durP2;ratioP2;P2;SDS_P1;SDS_P2;PMS_P1;PMS_P2;Temp;Humidity;BMP_temperature;BMP_pressure;BME280_temperature;BME280_humidity;BME280_pressure;Samples;Min_cycle;Max_cycle;Signal;HPM_P1;HPM_P2
2020/12/04 00:00:18;;;;;;;5.87;2.93;;;9.10;99.90;;;;;;5101756;28;20269;-90
2020/12/04 00:02:52;;;;;;;8.67;3.20;;;9.00;99.90;;;;;;5103145;28;20210;-91
2020/12/04 00:05:24;;;;;;;11.13;3.30;;;9.00;99.90;;;;;;5101048;28;20703;-91
2020/12/04 00:07:55;;;;;;;5.50;2.60;;;8.90;99.90;;;;;;5101220;28;20208;-90
2020/12/04 00:10:25;;;;;;;7.20;2.67;;;8.90;99.90;;;;;;5104611;28;20210;-91
2020/12/04 00:13:00;;;;;;;5.83;2.87;;;8.90;99.90;;;;;;5102295;28;20234;-89
2020/12/04 00:15:32;;;;;;;4.50;2.73;;;8.80;99.90;;;;;;5106007;28;20214;-90
2020/12/04 00:18:02;;;;;;;4.23;2.70;;;8.70;99.90;;;;;;5107466;28;20223;-91
2020/12/04 00:20:35;;;;;;;5.60;2.80;;;8.60;99.90;;;;;;5113256;28;20202;-89
2020/12/04 00:23:06;;;;;;;7.27;2.80;;;8.50;99.90;;;;;;5106986;28;20195;-89
2020/12/04 00:25:37;;;;;;;4.90;3.00;;;8.50;99.90;;;;;;5110401;28;20213;-90
2020/12/04 00:28:07;;;;;;;9.83;3.13;;;8.40;99.90;;;;;;5123640;28;20198;-91
2020/12/04 00:30:37;;;;;;;6.33;3.20;;;8.40;99.90;;;;;;5117948;28;20195;-91
2020/12/04 00:33:08;;;;;;;8.53;3.10;;;8.30;99.90;;;;;;5113931;28;20230;-91
2020/12/04 00:35:43;;;;;;;4.43;3.20;;;8.30;99.90;;;;;;5114366;28;20202;-90
2020/12/04 00:38:13;;;;;;;7.67;3.33;;;8.20;99.90;;;;;;5115496;28;20194;-91
2020/12/04 00:40:44;;;;;;;8.30;3.27;;;8.20;99.90;;;;;;5113424;28;20204;-91
2020/12/04 00:43:14;;;;;;;8.07;3.40;;;8.10;99.90;;;;;;5114723;28;20187;-89
2020/12/04 00:45:46;;;;;;;5.40;3.17;;;8.10;99.90;;;;;;5115230;28;20225;-89
2020/12/04 00:48:16;;;;;;;6.37;3.47;;;8.10;99.90;;;;;;5115182;28;20236;-89
2020/12/04 00:50:47;;;;;;;7.40;3.60;;;8.00;99.90;;;;;;5111844;28;20195;-91
2020/12/04 00:53:18;;;;;;;6.57;3.80;;;7.90;99.90;;;;;;5113274;28;20236;-88
2020/12/04 00:55:49;;;;;;;8.37;3.70;;;7.90;99.90;;;;;;5113720;28;20213;-89
2020/12/04 00:58:19;;;;;;;6.10;3.37;;;7.90;99.90;;;;;;5111236;28;20210;-89
2020/12/04 01:00:50;;;;;;;7.23;3.87;;;7.90;99.90;;;;;;5104947;28;20265;-89
2020/12/04 01:03:24;;;;;;;7.27;3.57;;;7.90;99.90;;;;;;5086577;28;20206;-90
2020/12/04 01:05:57;;;;;;;7.57;3.77;;;7.80;99.90;;;;;;5088099;28;20217;-89
2020/12/04 01:08:28;;;;;;;4.93;2.97;;;7.70;99.90;;;;;;5087249;28;20537;-89
2020/12/04 01:10:59;;;;;;;7.70;3.30;;;7.60;99.90;;;;;;5100364;28;20288;-89
2020/12/04 01:13:30;;;;;;;7.40;3.40;;;7.50;99.90;;;;;;5104767;28;20267;-89
2020/12/04 01:16:00;;;;;;;9.30;3.70;;;7.50;99.90;;;;;;5107065;28;20725;-90
2020/12/04 01:18:34;;;;;;;10.17;4.07;;;7.30;99.90;;;;;;5107408;28;20266;-89
2020/12/04 01:21:21;;;;;;;6.97;4.13;;;7.30;99.90;;;;;;5110529;28;20218;-91
2020/12/04 01:23:59;;;;;;;8.33;3.80;;;7.20;99.90;;;;;;5109591;28;20215;-89
2020/12/04 01:26:40;;;;;;;7.20;3.63;;;7.20;99.90;;;;;;5109375;28;20216;-89
2020/12/04 01:29:13;;;;;;;5.83;3.00;;;7.10;99.90;;;;;;5106427;28;20212;-89
2020/12/04 01:31:51;;;;;;;7.40;3.13;;;7.10;99.90;;;;;;5102488;28;20236;-88
2020/12/04 01:34:23;;;;;;;7.27;3.77;;;7.10;99.90;;;;;;5097850;28;20734;-88
2020/12/04 01:37:07;;;;;;;6.93;3.77;;;7.10;99.90;;;;;;5102451;28;20203;-89
2020/12/04 01:39:41;;;;;;;7.17;3.40;;;7.20;99.90;;;;;;5103972;28;20210;-89
2020/12/04 01:42:30;;;;;;;7.23;4.20;;;7.20;99.90;;;;;;5104339;28;20214;-88
2020/12/04 01:45:02;;;;;;;6.77;4.10;;;7.20;99.90;;;;;;5098820;28;20205;-88
2020/12/04 01:47:33;;;;;;;7.13;4.03;;;7.20;99.90;;;;;;5097199;28;20563;-88
2020/12/04 01:50:07;;;;;;;8.60;4.50;;;7.20;99.90;;;;;;5097478;28;20232;-88
2020/12/04 01:52:40;;;;;;;7.50;4.07;;;7.20;99.90;;;;;;5096663;28;20257;-91
2020/12/04 01:55:11;;;;;;;7.93;3.90;;;7.30;99.90;;;;;;4749812;28;9999656;-89
2020/12/04 01:57:45;;;;;;;5.57;3.83;;;7.30;99.90;;;;;;5084003;28;20222;-87
2020/12/04 02:00:16;;;;;;;10.20;3.60;;;7.30;99.90;;;;;;5093162;28;20207;-89
2020/12/04 02:02:50;;;;;;;5.37;3.43;;;7.40;99.90;;;;;;5094616;28;20244;-88
2020/12/04 02:05:20;;;;;;;6.03;3.37;;;7.50;99.90;;;;;;5097456;28;20211;-90
2020/12/04 02:08:00;;;;;;;8.23;3.40;;;7.50;99.90;;;;;;5097414;28;20251;-87
2020/12/04 02:10:34;;;;;;;7.50;3.93;;;7.60;99.90;;;;;;5083617;28;21053;-88
2020/12/04 02:13:06;;;;;;;6.37;3.87;;;7.60;99.90;;;;;;5099807;28;20218;-87
2020/12/04 02:15:37;;;;;;;6.40;3.70;;;7.70;99.90;;;;;;5101352;28;20282;-88
2020/12/04 02:18:10;;;;;;;5.33;3.70;;;7.70;99.90;;;;;;5083559;28;20210;-89
2020/12/04 02:20:42;;;;;;;8.17;3.83;;;7.70;99.90;;;;;;5097252;28;20216;-87
2020/12/04 02:23:14;;;;;;;8.13;4.10;;;7.70;99.90;;;;;;5099346;28;20226;-85
2020/12/04 02:25:44;;;;;;;5.37;3.40;;;7.70;99.90;;;;;;5086591;28;20268;-87
2020/12/04 02:28:15;;;;;;;6.67;3.63;;;7.70;99.90;;;;;;5099250;28;20289;-91
2020/12/04 02:30:45;;;;;;;6.83;3.40;;;7.70;99.90;;;;;;5103586;28;20195;-86
2020/12/04 02:33:16;;;;;;;6.63;3.20;;;7.70;99.90;;;;;;5100004;28;20260;-86
2020/12/04 02:35:48;;;;;;;5.13;3.00;;;7.70;99.90;;;;;;5098455;28;20207;-84
2020/12/04 02:38:19;;;;;;;6.30;3.40;;;7.70;99.90;;;;;;5098975;28;20247;-86
2020/12/04 02:40:50;;;;;;;5.07;3.60;;;7.70;99.90;;;;;;5100680;28;20215;-85
2020/12/04 02:43:20;;;;;;;6.37;3.57;;;7.70;99.90;;;;;;5101438;28;20211;-84
2020/12/04 02:45:52;;;;;;;6.73;3.33;;;7.80;99.90;;;;;;5103139;28;20787;-84
2020/12/04 02:48:22;;;;;;;6.07;3.40;;;7.80;99.90;;;;;;5112409;28;20210;-86
2020/12/04 02:51:12;;;;;;;5.60;4.13;;;7.80;99.90;;;;;;5113512;28;20210;-85
2020/12/04 02:53:42;;;;;;;7.63;4.73;;;7.90;99.90;;;;;;5112338;28;20221;-83
2020/12/04 02:56:19;;;;;;;10.67;5.10;;;7.90;99.90;;;;;;5108403;28;20212;-86
2020/12/04 02:58:49;;;;;;;6.60;5.00;;;7.90;99.90;;;;;;5104060;28;20272;-83
2020/12/04 03:01:20;;;;;;;9.73;5.60;;;7.90;99.90;;;;;;5102021;28;20547;-85
2020/12/04 03:03:51;;;;;;;8.77;5.97;;;7.90;99.90;;;;;;5106034;28;20243;-85
2020/12/04 03:06:23;;;;;;;8.73;5.27;;;7.80;99.90;;;;;;5105246;28;20214;-84
2020/12/04 03:08:54;;;;;;;7.10;4.90;;;7.80;99.90;;;;;;5107158;28;20252;-85
2020/12/04 03:11:26;;;;;;;5.60;3.90;;;7.80;99.90;;;;;;5112969;28;20263;-87
2020/12/04 03:16:44;;;;;;;6.20;3.90;;;7.70;99.90;;;;;;5115540;28;20280;-87
2020/12/04 03:19:15;;;;;;;8.83;3.80;;;7.70;99.90;;;;;;5111160;28;20272;-88
2020/12/04 03:21:49;;;;;;;6.83;3.90;;;7.70;99.90;;;;;;5109797;28;20211;-87
2020/12/04 03:24:20;;;;;;;6.77;3.67;;;7.70;99.90;;;;;;5108679;28;20216;-87
2020/12/04 03:26:52;;;;;;;10.30;5.87;;;7.70;99.90;;;;;;5107737;28;20277;-86
2020/12/04 03:29:22;;;;;;;10.47;5.90;;;7.70;99.90;;;;;;5106776;28;20279;-87
2020/12/04 03:32:06;;;;;;;10.90;6.00;;;7.70;99.90;;;;;;5097483;28;20207;-88
2020/12/04 03:34:40;;;;;;;7.93;6.00;;;7.70;99.90;;;;;;5104970;28;20302;-88
2020/12/04 03:37:13;;;;;;;7.73;4.70;;;7.70;99.90;;;;;;5105813;28;20240;-86
2020/12/04 03:39:44;;;;;;;11.43;5.67;;;7.70;99.90;;;;;;5105486;28;20237;-87
2020/12/04 03:42:15;;;;;;;13.50;4.93;;;7.70;99.90;;;;;;5086937;28;20293;-86
2020/12/04 03:44:46;;;;;;;9.40;4.77;;;7.70;99.90;;;;;;5086679;28;20219;-86
2020/12/04 03:47:16;;;;;;;8.43;4.33;;;7.60;99.90;;;;;;5086421;28;20289;-87
2020/12/04 03:49:46;;;;;;;9.47;4.20;;;7.60;99.90;;;;;;5097353;28;20207;-86
2020/12/04 03:52:20;;;;;;;8.57;4.70;;;7.60;99.90;;;;;;5105941;28;20280;-87
2020/12/04 03:54:51;;;;;;;7.07;4.17;;;7.60;99.90;;;;;;5102580;28;20624;-87
2020/12/04 03:57:21;;;;;;;8.10;4.13;;;7.60;99.90;;;;;;5104008;28;20210;-87
2020/12/04 03:59:51;;;;;;;8.17;4.40;;;7.70;99.90;;;;;;5103714;28;20235;-87
2020/12/04 04:02:23;;;;;;;7.70;4.50;;;7.70;99.90;;;;;;5088511;28;20235;-88
2020/12/04 04:04:59;;;;;;;9.47;4.20;;;7.70;99.90;;;;;;5105437;28;20226;-88
2020/12/04 04:07:31;;;;;;;6.00;4.00;;;7.70;99.90;;;;;;5104685;28;20217;-88
2020/12/04 04:10:02;;;;;;;6.90;4.10;;;7.70;99.90;;;;;;5105755;28;20241;-89
2020/12/04 04:12:33;;;;;;;10.40;4.20;;;7.70;99.90;;;;;;5106910;28;20214;-90
2020/12/04 04:15:06;;;;;;;8.23;4.00;;;7.70;99.90;;;;;;5106868;28;20227;-87
2020/12/04 04:17:37;;;;;;;7.13;4.07;;;7.70;99.90;;;;;;5086147;28;20215;-88
2020/12/04 04:20:08;;;;;;;7.77;4.90;;;7.70;99.90;;;;;;5085771;28;20282;-87
2020/12/04 04:22:41;;;;;;;7.57;4.50;;;7.80;99.90;;;;;;5083154;28;20674;-88
2020/12/04 04:25:15;;;;;;;9.47;4.50;;;7.80;99.90;;;;;;5093761;28;20217;-87
2020/12/04 04:27:46;;;;;;;6.77;4.37;;;7.80;99.90;;;;;;5104963;28;20205;-87
2020/12/04 04:30:20;;;;;;;8.30;4.50;;;7.80;99.90;;;;;;5103750;28;20230;-88
2020/12/04 04:32:51;;;;;;;8.10;4.17;;;7.80;99.90;;;;;;5087430;28;20236;-87
2020/12/04 04:35:22;;;;;;;8.87;4.70;;;7.80;99.90;;;;;;5088043;28;20214;-87
2020/12/04 04:37:54;;;;;;;9.47;4.67;;;7.80;99.90;;;;;;5086553;28;20243;-88
2020/12/04 04:40:26;;;;;;;8.53;4.50;;;7.80;99.90;;;;;;5095426;28;20205;-88
2020/12/04 04:43:09;;;;;;;8.50;4.53;;;7.80;99.90;;;;;;5104388;28;20284;-88
2020/12/04 04:45:42;;;;;;;7.13;4.67;;;7.80;99.90;;;;;;5106673;28;20248;-88
2020/12/04 04:48:17;;;;;;;9.97;4.60;;;7.80;99.90;;;;;;5107858;28;20209;-85
2020/12/04 04:50:50;;;;;;;7.97;4.53;;;7.80;99.90;;;;;;5106925;28;20209;-87
2020/12/04 04:53:25;;;;;;;7.53;4.00;;;7.90;99.90;;;;;;5103054;28;20224;-86
2020/12/04 04:55:56;;;;;;;7.27;4.40;;;7.80;99.90;;;;;;5107177;28;20674;-87
2020/12/04 04:58:33;;;;;;;7.23;4.33;;;7.80;99.90;;;;;;5107771;28;20210;-88
2020/12/04 05:01:05;;;;;;;5.70;3.97;;;7.80;99.90;;;;;;5106575;28;20223;-87
2020/12/04 05:06:38;;;;;;;8.57;4.17;;;7.80;99.90;;;;;;5106800;28;20202;-88
2020/12/04 05:09:16;;;;;;;6.07;4.07;;;7.80;99.90;;;;;;5108974;28;20211;-89
2020/12/04 05:11:57;;;;;;;6.43;4.23;;;7.80;99.90;;;;;;5107963;28;20216;-88
2020/12/04 05:14:30;;;;;;;9.33;4.30;;;7.80;99.90;;;;;;5109505;28;20235;-88
2020/12/04 05:17:01;;;;;;;8.37;4.37;;;7.80;99.90;;;;;;5106773;28;20212;-88
2020/12/04 05:19:34;;;;;;;8.30;4.30;;;7.70;99.90;;;;;;5108023;28;20218;-88
2020/12/04 05:22:16;;;;;;;7.70;4.47;;;7.70;99.90;;;;;;5107483;28;20227;-88
2020/12/04 05:24:51;;;;;;;7.20;3.97;;;7.70;99.90;;;;;;5108789;28;20270;-88
2020/12/04 05:27:30;;;;;;;8.10;3.50;;;7.70;99.90;;;;;;5108660;28;20326;-88
2020/12/04 05:30:02;;;;;;;5.83;3.30;;;7.70;99.90;;;;;;5108351;28;20249;-89
2020/12/04 05:32:32;;;;;;;5.37;3.33;;;7.70;99.90;;;;;;5095117;28;20210;-89
2020/12/04 05:35:12;;;;;;;8.33;4.20;;;7.70;99.90;;;;;;5089943;28;20240;-89
2020/12/04 05:37:44;;;;;;;5.43;3.23;;;7.70;99.90;;;;;;4754708;28;10000397;-88
2020/12/04 05:40:35;;;;;;;5.23;3.10;;;7.70;99.90;;;;;;5106975;28;20258;-88
2020/12/04 05:43:09;;;;;;;6.67;3.53;;;7.70;99.90;;;;;;5106065;28;20207;-88
2020/12/04 05:45:42;;;;;;;7.60;3.20;;;7.70;99.90;;;;;;5106551;28;20229;-89
2020/12/04 05:48:15;;;;;;;7.07;3.80;;;7.60;99.90;;;;;;5107594;28;20210;-88
2020/12/04 05:50:55;;;;;;;4.63;3.40;;;7.60;99.90;;;;;;5107666;28;20207;-88
2020/12/04 05:53:28;;;;;;;6.90;3.00;;;7.50;99.90;;;;;;5107941;28;20258;-88
2020/12/04 05:56:08;;;;;;;6.00;3.57;;;7.40;99.90;;;;;;5107303;28;20208;-88
2020/12/04 05:58:41;;;;;;;7.10;3.70;;;7.20;99.90;;;;;;5107911;28;20226;-88
2020/12/04 06:01:12;;;;;;;14.77;4.07;;;7.10;99.90;;;;;;5107669;28;20202;-88
2020/12/04 06:03:43;;;;;;;6.80;4.07;;;7.00;99.90;;;;;;5106693;28;20212;-88
2020/12/04 06:06:24;;;;;;;12.90;6.43;;;7.00;99.90;;;;;;5107694;28;20241;-88
2020/12/04 06:08:58;;;;;;;8.17;4.90;;;6.90;99.90;;;;;;5107772;28;20249;-86
2020/12/04 06:11:37;;;;;;;7.60;4.77;;;6.80;99.90;;;;;;5107614;28;20576;-86
2020/12/04 06:14:16;;;;;;;6.37;4.67;;;6.70;99.90;;;;;;5107362;28;20257;-85
2020/12/04 06:17:14;;;;;;;7.53;4.37;;;6.60;99.90;;;;;;5107845;28;20212;-88
2020/12/04 06:19:46;;;;;;;8.20;4.13;;;6.60;99.90;;;;;;5107943;28;20217;-87
2020/12/04 06:22:20;;;;;;;6.53;3.77;;;6.60;99.90;;;;;;5106901;28;20210;-88
2020/12/04 06:25:04;;;;;;;6.90;3.80;;;6.70;99.90;;;;;;5097605;28;20230;-87
2020/12/04 06:27:48;;;;;;;8.40;4.10;;;6.70;99.90;;;;;;5109348;28;20210;-87
2020/12/04 06:30:25;;;;;;;7.43;3.57;;;6.70;99.90;;;;;;5112002;28;20227;-88
2020/12/04 06:32:58;;;;;;;6.13;3.60;;;6.80;99.90;;;;;;5113725;28;20204;-88
2020/12/04 06:35:43;;;;;;;6.13;3.37;;;6.80;99.90;;;;;;5113725;28;20237;-89
2020/12/04 06:38:41;;;;;;;5.60;3.50;;;6.90;99.90;;;;;;5113938;28;20204;-89
2020/12/04 06:41:32;;;;;;;7.23;3.83;;;7.00;99.90;;;;;;5112705;28;20715;-88
2020/12/04 06:44:07;;;;;;;10.57;4.00;;;7.00;99.90;;;;;;5110992;28;20284;-88
2020/12/04 06:46:46;;;;;;;5.80;4.00;;;7.10;99.90;;;;;;5112037;28;20222;-89
2020/12/04 06:49:38;;;;;;;6.57;4.47;;;7.20;99.90;;;;;;5111898;28;20229;-88
2020/12/04 06:52:17;;;;;;;7.13;4.50;;;7.20;99.90;;;;;;5110574;28;20209;-88
2020/12/04 06:54:51;;;;;;;8.13;4.50;;;7.20;99.90;;;;;;5109406;28;20294;-87
2020/12/04 06:57:23;;;;;;;7.97;5.00;;;7.20;99.90;;;;;;5110175;28;20213;-88
2020/12/04 06:59:56;;;;;;;8.63;4.30;;;7.30;99.90;;;;;;5109946;28;20203;-86
2020/12/04 07:02:31;;;;;;;10.40;5.77;;;7.30;99.90;;;;;;5110966;28;20203;-87
2020/12/04 07:05:03;;;;;;;8.00;4.67;;;7.30;99.90;;;;;;5112289;28;20218;-88
2020/12/04 07:07:35;;;;;;;8.07;5.53;;;7.30;99.90;;;;;;5112133;28;20216;-88
2020/12/04 07:10:07;;;;;;;6.20;3.37;;;7.30;99.90;;;;;;5111218;28;20227;-88
2020/12/04 07:12:40;;;;;;;7.43;3.97;;;7.30;99.90;;;;;;5110234;28;20235;-88
2020/12/04 07:15:14;;;;;;;5.67;3.87;;;7.30;99.90;;;;;;5111115;28;20234;-88
2020/12/04 07:17:46;;;;;;;6.57;4.17;;;7.30;99.90;;;;;;5113581;28;20207;-86
2020/12/04 07:20:16;;;;;;;7.20;3.77;;;7.40;99.90;;;;;;5112286;28;20241;-87
2020/12/04 07:22:49;;;;;;;6.53;4.30;;;7.40;99.90;;;;;;5111251;28;20233;-87
2020/12/04 07:25:20;;;;;;;6.53;3.90;;;7.40;99.90;;;;;;5111765;28;20330;-87
2020/12/04 07:27:51;;;;;;;7.53;3.90;;;7.40;99.90;;;;;;5112072;28;20203;-88
2020/12/04 07:30:27;;;;;;;5.77;3.93;;;7.40;99.90;;;;;;5109840;28;20201;-87
2020/12/04 07:32:58;;;;;;;8.57;4.83;;;7.40;99.90;;;;;;5111011;28;20206;-88
2020/12/04 07:35:31;;;;;;;5.67;4.13;;;7.40;99.90;;;;;;5111732;28;20244;-87
2020/12/04 07:38:08;;;;;;;7.23;3.57;;;7.40;99.90;;;;;;5111061;28;20214;-87
2020/12/04 07:40:40;;;;;;;6.03;3.43;;;7.40;99.90;;;;;;5110787;28;20547;-88
2020/12/04 07:43:18;;;;;;;7.33;3.60;;;7.40;99.90;;;;;;5111140;28;20594;-87
2020/12/04 07:45:59;;;;;;;6.47;3.43;;;7.40;99.90;;;;;;5110504;28;20206;-87
2020/12/04 07:48:29;;;;;;;5.93;3.53;;;7.40;99.90;;;;;;5112278;28;20214;-88
2020/12/04 07:51:02;;;;;;;6.90;3.37;;;7.40;99.90;;;;;;5112025;28;20210;-88
2020/12/04 07:53:34;;;;;;;4.77;3.23;;;7.40;99.90;;;;;;5111444;28;20217;-87
2020/12/04 07:56:06;;;;;;;4.80;3.33;;;7.30;99.90;;;;;;5111338;28;20214;-88
2020/12/04 07:58:40;;;;;;;5.57;3.17;;;7.30;99.90;;;;;;5110104;28;20490;-88
2020/12/04 08:01:13;;;;;;;4.73;3.03;;;7.30;99.90;;;;;;5110663;28;20205;-87
2020/12/04 08:03:50;;;;;;;5.30;3.10;;;7.20;99.90;;;;;;5110414;28;20258;-86
2020/12/04 08:06:27;;;;;;;4.33;3.00;;;7.20;99.90;;;;;;5110904;28;20283;-87
2020/12/04 08:09:14;;;;;;;5.37;3.20;;;7.10;99.90;;;;;;5109418;28;20226;-88
2020/12/04 08:12:03;;;;;;;4.57;3.20;;;7.10;99.90;;;;;;5110445;28;20225;-87
2020/12/04 08:14:37;;;;;;;15.30;7.23;;;7.00;99.90;;;;;;5110928;28;20258;-88
2020/12/04 08:17:10;;;;;;;19.57;10.07;;;6.90;99.90;;;;;;5111235;28;20210;-88
2020/12/04 08:22:38;;;;;;;28.37;12.97;;;6.80;99.90;;;;;;5105751;28;20202;-88
2020/12/04 08:28:09;;;;;;;14.67;6.70;;;6.70;99.90;;;;;;5111855;28;20239;-87
2020/12/04 08:33:31;;;;;;;10.83;6.07;;;6.70;99.90;;;;;;5111344;28;20230;-87
2020/12/04 08:36:02;;;;;;;8.43;4.73;;;6.70;99.90;;;;;;5116353;28;20195;-87
2020/12/04 08:38:32;;;;;;;8.23;5.00;;;6.70;99.90;;;;;;5118264;28;20203;-87
2020/12/04 08:41:03;;;;;;;8.53;4.60;;;6.70;99.90;;;;;;5117721;28;20214;-89
2020/12/04 08:43:44;;;;;;;5.87;3.70;;;6.60;99.90;;;;;;5116300;28;20206;-88
2020/12/04 08:46:15;;;;;;;5.73;3.60;;;6.50;99.90;;;;;;5113951;28;20208;-88
2020/12/04 08:48:47;;;;;;;5.50;3.43;;;6.50;99.90;;;;;;5112238;28;20211;-88
2020/12/04 08:51:18;;;;;;;4.27;3.30;;;6.50;99.90;;;;;;5093459;28;20207;-88
2020/12/04 08:53:50;;;;;;;5.20;3.20;;;6.50;99.90;;;;;;5108861;28;20268;-89
2020/12/04 08:56:24;;;;;;;4.40;2.63;;;6.40;99.90;;;;;;5109515;28;20214;-88
2020/12/04 08:58:56;;;;;;;4.57;2.67;;;6.40;99.90;;;;;;5107844;28;20237;-88
2020/12/04 09:01:26;;;;;;;5.40;3.07;;;6.30;99.90;;;;;;5107810;28;20213;-88
2020/12/04 09:04:02;;;;;;;3.43;2.63;;;6.40;99.90;;;;;;5108850;28;20229;-88
2020/12/04 09:06:33;;;;;;;5.03;2.97;;;6.30;99.90;;;;;;5109476;28;20218;-87
2020/12/04 09:09:13;;;;;;;5.63;2.97;;;6.30;99.90;;;;;;5109528;28;20235;-88
2020/12/04 09:11:45;;;;;;;3.87;2.70;;;6.30;99.90;;;;;;5109444;28;20209;-88
2020/12/04 09:14:15;;;;;;;4.80;2.63;;;6.30;99.90;;;;;;5109766;28;20235;-88
2020/12/04 09:16:47;;;;;;;6.10;2.90;;;6.30;99.90;;;;;;5109934;28;20215;-88
2020/12/04 09:19:24;;;;;;;5.27;3.17;;;6.20;99.90;;;;;;5109925;28;20207;-88
2020/12/04 09:24:40;;;;;;;4.63;2.73;;;6.30;99.90;;;;;;5107202;28;20627;-88
2020/12/04 09:27:11;;;;;;;4.10;2.50;;;6.30;99.90;;;;;;5101085;28;20273;-88
2020/12/04 09:29:45;;;;;;;4.17;2.90;;;6.30;99.90;;;;;;5108188;28;20211;-88
2020/12/04 09:32:17;;;;;;;6.67;3.10;;;6.30;99.90;;;;;;5097389;28;20210;-88
2020/12/04 09:34:53;;;;;;;5.50;2.80;;;6.30;99.90;;;;;;5095474;28;20241;-89
2020/12/04 09:37:26;;;;;;;4.17;2.80;;;6.30;99.90;;;;;;5107646;28;20198;-88
2020/12/04 09:40:13;;;;;;;4.03;2.80;;;6.30;99.90;;;;;;5108427;28;20234;-88
2020/12/04 09:42:44;;;;;;;6.00;2.77;;;6.20;99.90;;;;;;5107754;28;20206;-89
2020/12/04 09:45:19;;;;;;;5.37;2.90;;;6.30;99.90;;;;;;5107527;28;20207;-88
2020/12/04 09:47:49;;;;;;;4.93;3.00;;;6.30;99.90;;;;;;5108238;28;20222;-89
2020/12/04 09:50:38;;;;;;;5.20;3.10;;;6.30;99.90;;;;;;5108158;28;20206;-89
2020/12/04 09:53:10;;;;;;;5.07;3.37;;;6.40;99.90;;;;;;5106924;28;20236;-88
2020/12/04 09:55:44;;;;;;;3.83;2.67;;;6.40;99.90;;;;;;5107376;28;20234;-88
2020/12/04 09:58:15;;;;;;;5.20;3.17;;;6.50;99.90;;;;;;5107592;28;20228;-88
2020/12/04 10:00:46;;;;;;;4.03;2.80;;;6.50;99.90;;;;;;5108116;28;20203;-89
2020/12/04 10:03:17;;;;;;;5.07;2.60;;;6.50;99.90;;;;;;5106693;28;20577;-88
2020/12/04 10:08:35;;;;;;;4.87;2.83;;;6.60;99.90;;;;;;5107038;28;20314;-88
2020/12/04 10:11:09;;;;;;;7.63;2.80;;;6.60;99.90;;;;;;5107921;28;20205;-88
2020/12/04 10:13:46;;;;;;;4.53;2.83;;;6.60;99.90;;;;;;5106521;28;20340;-89
2020/12/04 10:16:17;;;;;;;4.97;2.90;;;6.60;99.90;;;;;;5107651;28;20244;-89
2020/12/04 10:18:48;;;;;;;5.53;3.27;;;6.60;99.90;;;;;;5107430;28;20206;-89
2020/12/04 10:21:23;;;;;;;4.47;2.40;;;6.60;99.90;;;;;;5106580;28;20228;-89
2020/12/04 10:23:54;;;;;;;3.87;2.70;;;6.60;99.90;;;;;;5108834;28;20218;-89
2020/12/04 10:26:25;;;;;;;4.07;2.50;;;6.60;99.90;;;;;;5107827;28;20219;-88
2020/12/04 10:28:57;;;;;;;5.73;3.00;;;6.70;99.90;;;;;;5107022;28;20212;-89
2020/12/04 10:31:28;;;;;;;3.73;2.80;;;6.70;99.90;;;;;;5107663;28;20218;-89
2020/12/04 10:34:00;;;;;;;8.70;2.73;;;6.70;99.90;;;;;;5108946;28;20224;-89
2020/12/04 10:36:38;;;;;;;6.40;2.90;;;6.80;99.90;;;;;;5107665;28;20237;-89
2020/12/04 10:39:12;;;;;;;4.97;3.00;;;6.70;99.90;;;;;;5108846;28;20212;-88
2020/12/04 10:41:45;;;;;;;5.07;2.90;;;6.70;99.90;;;;;;5105430;28;20221;-89
2020/12/04 10:47:13;;;;;;;4.13;2.80;;;6.70;99.90;;;;;;5087017;28;20211;-89
2020/12/04 10:49:46;;;;;;;5.93;3.10;;;6.60;99.90;;;;;;5086499;28;20231;-88
2020/12/04 10:52:18;;;;;;;6.33;2.83;;;6.70;99.90;;;;;;5086185;28;20203;-89
2020/12/04 10:54:50;;;;;;;5.90;3.37;;;6.50;99.90;;;;;;5099328;28;20258;-88
2020/12/04 10:57:21;;;;;;;5.63;2.93;;;6.50;99.90;;;;;;5106904;28;20660;-89
2020/12/04 10:59:52;;;;;;;4.40;2.90;;;6.50;99.90;;;;;;5107703;28;20210;-88
2020/12/04 11:02:27;;;;;;;6.03;3.10;;;6.40;99.90;;;;;;5109169;28;20609;-87
2020/12/04 11:07:46;;;;;;;5.63;3.27;;;6.30;99.90;;;;;;5108949;28;20337;-87
2020/12/04 11:10:21;;;;;;;4.07;2.93;;;6.30;99.90;;;;;;5091696;28;20207;-88
2020/12/04 11:12:52;;;;;;;6.90;2.73;;;6.20;99.90;;;;;;5115823;28;20190;-87
2020/12/04 11:15:36;;;;;;;4.93;2.47;;;6.20;99.90;;;;;;5119861;28;20230;-88
2020/12/04 11:18:20;;;;;;;5.70;3.10;;;6.20;99.90;;;;;;5117429;28;20199;-88
2020/12/04 11:20:50;;;;;;;3.63;2.60;;;6.10;99.90;;;;;;5110545;28;20199;-88
2020/12/04 11:23:25;;;;;;;4.00;2.57;;;6.10;99.90;;;;;;5109247;28;20297;-87
2020/12/04 11:25:56;;;;;;;5.93;2.57;;;6.10;99.90;;;;;;5108947;28;20214;-88
2020/12/04 11:28:27;;;;;;;4.50;2.50;;;6.10;99.90;;;;;;5110401;28;20207;-88
2020/12/04 11:30:58;;;;;;;4.67;2.70;;;6.00;99.90;;;;;;5110404;28;20210;-87
2020/12/04 11:33:29;;;;;;;5.30;2.90;;;6.00;99.90;;;;;;5109989;28;20226;-88
2020/12/04 11:36:02;;;;;;;4.27;2.60;;;6.00;99.90;;;;;;5110479;28;20665;-88
2020/12/04 11:38:34;;;;;;;5.87;3.47;;;6.00;99.90;;;;;;5108550;28;20276;-87
2020/12/04 11:41:06;;;;;;;4.43;2.83;;;6.00;99.90;;;;;;5109472;28;20206;-87
2020/12/04 11:43:38;;;;;;;4.77;3.00;;;6.00;99.90;;;;;;5109140;28;20207;-89
2020/12/04 11:46:08;;;;;;;4.27;3.10;;;5.90;99.90;;;;;;5111021;28;20218;-87
2020/12/04 11:48:45;;;;;;;5.43;3.20;;;5.90;99.90;;;;;;5110156;28;20241;-87
2020/12/04 11:51:17;;;;;;;4.13;2.70;;;5.90;99.90;;;;;;5109768;28;20206;-87
2020/12/04 11:53:49;;;;;;;4.77;3.63;;;5.80;99.90;;;;;;5109597;28;20208;-87
2020/12/04 11:56:21;;;;;;;6.90;3.40;;;5.80;99.90;;;;;;5109143;28;20262;-87
2020/12/04 12:01:40;;;;;;;8.93;4.57;;;5.80;99.90;;;;;;5108465;28;20226;-87
2020/12/04 12:04:12;;;;;;;6.03;3.83;;;5.70;99.90;;;;;;5109695;28;20218;-87
2020/12/04 12:06:44;;;;;;;6.30;3.50;;;5.60;99.90;;;;;;5089325;28;20208;-87
2020/12/04 12:09:16;;;;;;;4.57;3.30;;;5.50;99.90;;;;;;5089586;28;20210;-87
2020/12/04 12:11:47;;;;;;;4.97;3.47;;;5.50;99.90;;;;;;5091827;28;20230;-87
2020/12/04 12:14:18;;;;;;;4.90;3.10;;;5.40;99.90;;;;;;5109649;28;20213;-88
2020/12/04 12:16:56;;;;;;;5.30;3.07;;;5.40;99.90;;;;;;5108499;28;20206;-88
2020/12/04 12:22:14;;;;;;;3.43;2.23;;;5.20;99.90;;;;;;5108272;28;20207;-87
2020/12/04 12:24:48;;;;;;;4.13;2.43;;;5.10;99.90;;;;;;5109541;28;20206;-87
2020/12/04 12:27:19;;;;;;;5.23;2.70;;;5.10;99.90;;;;;;5109411;28;20208;-87
2020/12/04 12:29:51;;;;;;;4.73;2.67;;;5.00;99.90;;;;;;5109928;28;20206;-88
2020/12/04 12:32:25;;;;;;;5.93;3.30;;;4.90;99.90;;;;;;5107995;28;20211;-88
2020/12/04 12:35:02;;;;;;;4.60;3.30;;;4.80;99.90;;;;;;5110276;28;20255;-89
2020/12/04 12:37:34;;;;;;;3.23;2.50;;;4.80;99.90;;;;;;5110987;28;20210;-88
2020/12/04 12:40:10;;;;;;;3.90;2.40;;;4.80;99.90;;;;;;5110477;28;20304;-88
2020/12/04 12:42:41;;;;;;;5.30;2.93;;;4.70;99.90;;;;;;5109365;28;20217;-88
2020/12/04 12:45:14;;;;;;;3.57;2.53;;;4.60;99.90;;;;;;5110133;28;20264;-89
2020/12/04 12:47:45;;;;;;;5.10;2.87;;;4.60;99.90;;;;;;5108307;28;20667;-88
2020/12/04 12:50:16;;;;;;;3.87;2.70;;;4.50;99.90;;;;;;5110405;28;20203;-88
2020/12/04 12:52:48;;;;;;;4.37;2.50;;;4.40;99.90;;;;;;5108835;28;20620;-89
2020/12/04 12:55:21;;;;;;;6.03;2.60;;;4.40;99.90;;;;;;5109479;28;20288;-89
2020/12/04 12:58:05;;;;;;;4.20;2.97;;;4.40;99.90;;;;;;5106916;28;20259;-88
2020/12/04 13:00:36;;;;;;;3.90;2.93;;;4.30;99.90;;;;;;5108268;28;20210;-87
2020/12/04 13:03:07;;;;;;;3.80;2.80;;;4.20;99.90;;;;;;5108120;28;20617;-88
2020/12/04 13:05:39;;;;;;;4.27;2.83;;;4.20;99.90;;;;;;5107926;28;20211;-88
2020/12/04 13:08:12;;;;;;;5.63;3.30;;;4.20;99.90;;;;;;5107824;28;20230;-88
2020/12/04 13:10:49;;;;;;;7.07;3.00;;;4.10;99.90;;;;;;5108883;28;20272;-88
2020/12/04 13:13:34;;;;;;;9.30;3.70;;;4.10;99.90;;;;;;5106818;28;20212;-88
2020/12/04 13:16:09;;;;;;;5.30;3.30;;;4.10;99.90;;;;;;5107040;28;20698;-88
2020/12/04 13:18:40;;;;;;;5.17;3.67;;;4.00;99.90;;;;;;5107680;28;20206;-88
2020/12/04 13:21:18;;;;;;;4.73;3.40;;;4.00;99.90;;;;;;5108361;28;20207;-88
2020/12/04 13:23:56;;;;;;;5.33;3.40;;;4.00;99.90;;;;;;5107828;28;20215;-89
2020/12/04 13:26:41;;;;;;;5.07;3.17;;;4.10;99.90;;;;;;5108263;28;20203;-87
2020/12/04 13:29:11;;;;;;;5.23;3.10;;;4.10;99.90;;;;;;5108691;28;20760;-88
2020/12/04 13:34:28;;;;;;;6.60;3.20;;;4.00;99.90;;;;;;5108016;28;20206;-87
2020/12/04 13:37:01;;;;;;;3.43;2.90;;;4.00;99.90;;;;;;5107798;28;20207;-88
2020/12/04 13:42:16;;;;;;;6.10;3.10;;;4.00;99.90;;;;;;5107614;28;20210;-88
2020/12/04 13:44:47;;;;;;;5.43;3.20;;;4.00;99.90;;;;;;5108531;28;20219;-89
2020/12/04 13:47:17;;;;;;;8.80;3.20;;;4.00;99.90;;;;;;5107221;28;20207;-88
2020/12/04 13:49:48;;;;;;;4.83;3.37;;;4.00;99.90;;;;;;5108971;28;20210;-88
2020/12/04 13:52:20;;;;;;;6.70;3.17;;;3.90;99.90;;;;;;5108403;28;20223;-88
2020/12/04 13:57:37;;;;;;;4.57;3.13;;;3.90;99.90;;;;;;5108095;28;20222;-88
2020/12/04 14:00:08;;;;;;;6.30;3.57;;;3.80;99.90;;;;;;5108616;28;20248;-88
2020/12/04 14:08:08;;;;;;;4.23;2.53;;;3.70;99.90;;;;;;5087530;28;20235;-88
2020/12/04 14:10:40;;;;;;;6.60;2.60;;;3.70;99.90;;;;;;5088761;28;20211;-88
2020/12/04 14:13:15;;;;;;;4.93;2.77;;;3.70;99.90;;;;;;5087118;28;20237;-89